createdAt,value
2018-09-10T00:03:56.254Z,19.40
2018-09-10T00:07:59.993Z,19.31
2018-09-10T00:12:03.962Z,19.25
2018-09-10T00:16:07.877Z,19.21
2018-09-10T00:20:12.530Z,19.16
2018-09-10T00:24:16.102Z,19.11
2018-09-10T00:28:19.714Z,19.05
2018-09-10T00:32:23.385Z,18.98
2018-09-10T00:36:26.950Z,18.94
2018-09-10T00:40:30.782Z,18.89
2018-09-10T00:44:34.270Z,18.86
2018-09-10T00:48:37.912Z,18.81
2018-09-10T00:52:41.439Z,18.78
2018-09-10T00:56:45.130Z,18.74
2018-09-10T01:00:48.810Z,18.72
2018-09-10T01:04:52.375Z,18.69
2018-09-10T01:08:57.234Z,18.63
2018-09-10T01:13:00.834Z,18.57
2018-09-10T01:17:04.457Z,18.51
2018-09-10T01:21:07.960Z,18.44
2018-09-10T01:25:11.573Z,18.41
2018-09-10T01:29:15.407Z,18.36
2018-09-10T01:33:24.263Z,18.32
2018-09-10T01:37:27.891Z,18.30
2018-09-10T01:41:31.519Z,18.28
2018-09-10T01:45:35.069Z,18.26
2018-09-10T01:49:38.836Z,18.26
2018-09-10T01:53:42.381Z,18.23
2018-09-10T01:57:46.095Z,18.19
2018-09-10T02:01:49.700Z,18.14
2018-09-10T02:05:53.479Z,18.10
2018-09-10T02:09:57.169Z,18.08
2018-09-10T02:14:00.822Z,18.06
2018-09-10T02:18:04.348Z,18.03
2018-09-10T02:22:08.012Z,18.00
2018-09-10T02:26:11.715Z,17.96
2018-09-10T02:30:15.380Z,17.90
2018-09-10T02:34:18.977Z,17.85
2018-09-10T02:38:22.622Z,17.83
2018-09-10T02:42:26.227Z,17.83
2018-09-10T02:46:29.902Z,17.79
2018-09-10T02:50:33.440Z,17.73
2018-09-10T02:54:37.103Z,17.67
2018-09-10T02:58:40.780Z,17.61
2018-09-10T03:02:44.394Z,17.54
2018-09-10T03:06:48.135Z,17.48
2018-09-10T03:10:51.663Z,17.46
2018-09-10T03:14:57.222Z,17.44
2018-09-10T03:19:00.903Z,17.43
2018-09-10T03:23:04.637Z,17.43
2018-09-10T03:27:08.310Z,17.41
2018-09-10T03:31:11.814Z,17.39
2018-09-10T03:35:15.392Z,17.37
2018-09-10T03:39:18.912Z,17.35
2018-09-10T03:43:22.448Z,17.33
2018-09-10T03:47:26.208Z,17.30
2018-09-10T03:51:29.929Z,17.27
2018-09-10T03:55:33.471Z,17.23
2018-09-10T03:59:37.357Z,17.19
2018-09-10T04:03:40.922Z,17.17
2018-09-10T04:07:44.622Z,17.13
2018-09-10T04:11:48.458Z,17.09
2018-09-10T04:15:52.075Z,17.09
2018-09-10T04:20:00.735Z,17.07
2018-09-10T04:24:04.299Z,17.06
2018-09-10T04:28:08.011Z,17.05
2018-09-10T04:32:11.593Z,17.04
2018-09-10T04:36:15.366Z,17.04
2018-09-10T04:40:19.186Z,17.00
2018-09-10T04:44:22.839Z,16.96
2018-09-10T04:48:26.696Z,16.93
2018-09-10T04:52:30.215Z,16.93
2018-09-10T04:56:33.748Z,16.96
2018-09-10T05:00:37.231Z,16.96
2018-09-10T05:04:41.068Z,16.98
2018-09-10T05:08:44.746Z,16.99
2018-09-10T05:12:48.415Z,16.98
2018-09-10T05:16:51.981Z,16.99
2018-09-10T05:20:55.483Z,17.01
2018-09-10T05:24:59.273Z,17.02
2018-09-10T05:29:02.978Z,17.03
2018-09-10T05:33:07.637Z,17.05
2018-09-10T05:37:11.243Z,17.09
2018-09-10T05:41:14.997Z,17.11
2018-09-10T05:45:18.617Z,17.14
2018-09-10T05:49:22.359Z,17.19
2018-09-10T05:53:25.859Z,17.22
2018-09-10T05:57:29.600Z,17.23
2018-09-10T06:01:33.046Z,17.24
2018-09-10T06:05:37.519Z,17.27
2018-09-10T06:09:41.188Z,17.30
2018-09-10T06:13:45.875Z,17.37
2018-09-10T06:17:49.416Z,17.42
2018-09-10T06:21:52.943Z,17.49
2018-09-10T06:25:56.399Z,17.58
2018-09-10T06:29:59.899Z,17.69
2018-09-10T06:34:03.547Z,17.79
2018-09-10T06:38:07.430Z,17.88
2018-09-10T06:42:10.879Z,18.01
2018-09-10T06:46:14.796Z,18.13
2018-09-10T06:50:18.675Z,18.25
2018-09-10T06:54:22.334Z,18.41
2018-09-10T06:58:26.021Z,18.59
2018-09-10T07:02:29.659Z,18.75
2018-09-10T07:06:33.304Z,18.90
2018-09-10T07:10:37.022Z,19.06
2018-09-10T07:14:40.589Z,19.16
2018-09-10T07:18:44.417Z,19.27
2018-09-10T07:22:48.474Z,19.44
2018-09-10T07:26:52.027Z,19.59
2018-09-10T07:30:55.788Z,19.64
2018-09-10T07:34:59.468Z,19.77
2018-09-10T07:39:03.080Z,19.93
2018-09-10T07:43:06.744Z,20.13
2018-09-10T07:47:10.408Z,20.29
2018-09-10T07:51:13.928Z,20.46
2018-09-10T07:55:17.732Z,20.62
2018-09-10T07:59:21.266Z,20.79
2018-09-10T08:03:24.799Z,20.95
2018-09-10T08:07:28.455Z,21.06
2018-09-10T08:11:33.244Z,21.15
2018-09-10T08:15:36.839Z,21.19
2018-09-10T08:19:40.627Z,21.29
2018-09-10T08:23:44.118Z,21.39
2018-09-10T08:27:47.786Z,21.54
2018-09-10T08:31:51.252Z,21.68
2018-09-10T08:35:55.330Z,21.75
2018-09-10T08:39:58.866Z,21.89
2018-09-10T08:44:02.661Z,21.98
2018-09-10T08:48:06.447Z,21.99
2018-09-10T08:52:09.941Z,22.04
2018-09-10T08:56:13.701Z,22.12
2018-09-10T09:00:17.211Z,22.19
2018-09-10T09:04:21.031Z,22.23
2018-09-10T09:08:25.771Z,22.32
2018-09-10T09:12:29.250Z,22.43
2018-09-10T09:16:32.867Z,22.59
2018-09-10T09:20:36.649Z,22.73
2018-09-10T09:24:40.184Z,22.80
2018-09-10T09:28:43.855Z,22.91
2018-09-10T09:32:47.801Z,23.05
2018-09-10T09:36:56.484Z,23.10
2018-09-10T09:41:05.335Z,23.21
2018-09-10T09:45:14.198Z,23.31
2018-09-10T09:49:18.093Z,23.41
2018-09-10T09:53:22.017Z,23.59
2018-09-10T09:57:25.568Z,23.72
2018-09-10T10:01:34.409Z,23.79
2018-09-10T10:05:37.921Z,23.93
2018-09-10T10:09:41.747Z,24.09
2018-09-10T10:13:45.352Z,24.21
2018-09-10T10:17:48.979Z,24.26
2018-09-10T10:21:52.778Z,24.39
2018-09-10T10:25:56.356Z,24.47
2018-09-10T10:30:00.024Z,24.52
2018-09-10T10:34:04.098Z,24.54
2018-09-10T10:38:07.866Z,24.63
2018-09-10T10:42:12.434Z,24.72
2018-09-10T10:46:16.183Z,24.77
2018-09-10T10:50:19.639Z,24.92
2018-09-10T10:54:23.139Z,25.07
2018-09-10T10:58:26.744Z,25.17
2018-09-10T11:02:30.574Z,25.19
2018-09-10T11:06:35.296Z,25.23
2018-09-10T11:10:38.927Z,25.29
2018-09-10T11:14:42.475Z,25.31
2018-09-10T11:18:46.084Z,25.30
2018-09-10T11:22:50.072Z,25.37
2018-09-10T11:26:53.591Z,25.51
2018-09-10T11:30:57.254Z,25.69
2018-09-10T11:35:00.883Z,25.84
2018-09-10T11:39:05.751Z,25.85
2018-09-10T11:43:09.311Z,25.83
2018-09-10T11:47:12.840Z,25.79
2018-09-10T11:51:17.479Z,25.80
2018-09-10T11:55:21.255Z,25.89
2018-09-10T11:59:24.789Z,25.98
2018-09-10T12:03:28.699Z,26.07
2018-09-10T12:07:32.245Z,26.08
2018-09-10T12:11:35.972Z,26.10
2018-09-10T12:15:39.481Z,26.10
2018-09-10T12:19:43.083Z,26.13
2018-09-10T12:23:46.539Z,26.15
2018-09-10T12:27:50.047Z,26.24
2018-09-10T12:31:53.707Z,26.32
2018-09-10T12:35:58.189Z,26.40
2018-09-10T12:40:01.787Z,26.39
2018-09-10T12:44:05.826Z,26.41
2018-09-10T12:48:10.543Z,26.53
2018-09-10T12:52:13.996Z,26.57
2018-09-10T12:56:17.674Z,26.58
2018-09-10T13:00:21.187Z,26.59
2018-09-10T13:04:24.976Z,26.57
2018-09-10T13:08:29.667Z,26.60
2018-09-10T13:12:33.164Z,26.61
2018-09-10T13:16:36.759Z,26.68
2018-09-10T13:20:40.679Z,26.68
2018-09-10T13:24:44.344Z,26.68
2018-09-10T13:28:48.307Z,26.63
2018-09-10T13:32:51.811Z,26.64
2018-09-10T13:36:55.455Z,26.70
2018-09-10T13:40:59.359Z,26.67
2018-09-10T13:45:03.841Z,26.62
2018-09-10T13:49:08.430Z,26.60
2018-09-10T13:53:12.014Z,26.67
2018-09-10T13:57:15.655Z,26.73
2018-09-10T14:01:19.366Z,26.65
2018-09-10T14:05:23.221Z,26.50
2018-09-10T14:09:26.898Z,26.42
2018-09-10T14:13:30.743Z,26.36
2018-09-10T14:17:34.391Z,26.33
2018-09-10T14:21:38.082Z,26.37
2018-09-10T14:25:41.694Z,26.33
2018-09-10T14:29:45.337Z,26.30
2018-09-10T14:33:48.991Z,26.26
2018-09-10T14:37:52.555Z,26.26
2018-09-10T14:41:56.226Z,26.25
2018-09-10T14:45:59.974Z,26.27
2018-09-10T14:50:04.293Z,26.28
2018-09-10T14:54:08.079Z,26.30
2018-09-10T14:58:11.698Z,26.33
2018-09-10T15:02:15.379Z,26.35
2018-09-10T15:06:19.095Z,26.38
2018-09-10T15:10:23.071Z,26.35
2018-09-10T15:14:26.831Z,26.34
2018-09-10T15:18:30.495Z,26.33
2018-09-10T15:22:33.968Z,26.30
2018-09-10T15:26:37.613Z,26.28
2018-09-10T15:30:41.493Z,26.27
2018-09-10T15:34:46.271Z,26.26
2018-09-10T15:38:50.178Z,26.22
2018-09-10T15:42:53.786Z,26.20
2018-09-10T15:46:57.469Z,26.14
2018-09-10T15:51:01.642Z,26.09
2018-09-10T15:55:05.342Z,26.09
2018-09-10T15:59:09.537Z,26.09
2018-09-10T16:03:13.445Z,26.08
2018-09-10T16:07:17.108Z,26.07
2018-09-10T16:11:24.218Z,26.09
2018-09-10T16:15:29.704Z,26.05
2018-09-10T16:19:33.356Z,26.02
2018-09-10T16:23:36.932Z,25.96
2018-09-10T16:27:40.580Z,25.90
2018-09-10T16:31:44.263Z,25.88
2018-09-10T16:35:48.235Z,25.85
2018-09-10T16:39:51.951Z,25.78
2018-09-10T16:43:55.630Z,25.74
2018-09-10T16:47:59.131Z,25.63
2018-09-10T16:52:03.032Z,25.49
2018-09-10T16:56:06.606Z,25.40
2018-09-10T17:00:10.257Z,25.33
2018-09-10T17:04:13.863Z,25.29
2018-09-10T17:08:17.583Z,25.22
2018-09-10T17:12:21.136Z,25.16
2018-09-10T17:16:26.933Z,25.10
2018-09-10T17:20:30.523Z,25.05
2018-09-10T17:24:34.525Z,24.95
2018-09-10T17:28:38.424Z,24.88
2018-09-10T17:32:43.395Z,24.77
2018-09-10T17:36:47.015Z,24.71
2018-09-10T17:40:50.791Z,24.64
2018-09-10T17:44:54.495Z,24.55
2018-09-10T17:48:59.474Z,24.47
2018-09-10T17:53:03.634Z,24.40
2018-09-10T17:57:07.342Z,24.30
2018-09-10T18:01:11.055Z,24.24
2018-09-10T18:05:14.744Z,24.18
2018-09-10T18:09:18.610Z,24.13
2018-09-10T18:17:49.925Z,23.98
2018-09-10T18:21:53.585Z,23.87
2018-09-10T18:25:57.325Z,23.82
2018-09-10T18:30:01.164Z,23.78
2018-09-10T18:34:06.751Z,23.73
2018-09-10T18:38:10.551Z,23.65
2018-09-10T18:42:15.103Z,23.60
2018-09-10T18:46:18.829Z,23.53
2018-09-10T18:50:22.521Z,23.44
2018-09-10T18:54:26.144Z,23.38
2018-09-10T18:58:29.839Z,23.31
2018-09-10T19:02:34.359Z,23.27
2018-09-10T19:06:38.468Z,23.18
2018-09-10T19:10:42.507Z,23.11
2018-09-10T19:14:48.062Z,23.04
2018-09-10T19:18:51.813Z,22.97
2018-09-10T19:22:55.427Z,22.91
2018-09-10T19:26:59.152Z,22.87
2018-09-10T19:31:03.185Z,22.83
2018-09-10T19:35:06.707Z,22.79
2018-09-10T19:39:11.872Z,22.76
2018-09-10T19:43:15.646Z,22.71
2018-09-10T19:47:19.312Z,22.67
2018-09-10T19:51:23.207Z,22.61
2018-09-10T19:55:27.104Z,22.60
2018-09-10T19:59:31.104Z,22.56
2018-09-10T20:03:34.781Z,22.54
2018-09-10T20:07:38.440Z,22.51
2018-09-10T20:11:42.140Z,22.47
2018-09-10T20:15:45.895Z,22.43
2018-09-10T20:19:49.480Z,22.36
2018-09-10T20:23:53.330Z,22.32
2018-09-10T20:27:56.908Z,22.29
2018-09-10T20:32:00.741Z,22.27
2018-09-10T20:36:04.412Z,22.24
2018-09-10T20:40:08.304Z,22.18
2018-09-10T20:44:11.885Z,22.14
2018-09-10T20:48:15.512Z,22.11
2018-09-10T20:52:19.311Z,22.11
2018-09-10T20:56:22.972Z,22.07
2018-09-10T21:00:26.719Z,22.04
2018-09-10T21:04:30.459Z,22.02
2018-09-10T21:08:34.111Z,22.00
2018-09-10T21:12:37.904Z,21.98
2018-09-10T21:16:41.824Z,21.96
2018-09-10T21:20:45.366Z,21.96
2018-09-10T21:24:48.947Z,21.95
2018-09-10T21:28:52.640Z,21.94
2018-09-10T21:32:56.209Z,21.92
2018-09-10T21:36:59.732Z,21.90
2018-09-10T21:41:03.228Z,21.87
2018-09-10T21:45:06.863Z,21.85
2018-09-10T21:49:10.543Z,21.81
2018-09-10T21:53:14.194Z,21.78
2018-09-10T21:57:18.142Z,21.77
2018-09-10T22:01:21.644Z,21.74
2018-09-10T22:05:25.190Z,21.71
2018-09-10T22:09:28.926Z,21.66
2018-09-10T22:13:32.508Z,21.60
2018-09-10T22:17:36.171Z,21.58
2018-09-10T22:21:40.022Z,21.55
2018-09-10T22:25:43.550Z,21.49
2018-09-10T22:29:47.146Z,21.42
2018-09-10T22:33:50.755Z,21.39
2018-09-10T22:37:54.829Z,21.36
2018-09-10T22:41:59.416Z,21.33
2018-09-10T22:46:03.115Z,21.29
2018-09-10T22:50:07.242Z,21.23
2018-09-10T22:54:11.052Z,21.19
2018-09-10T22:58:14.689Z,21.17
2018-09-10T23:02:18.287Z,21.14
2018-09-10T23:06:21.903Z,21.11
2018-09-10T23:10:25.586Z,21.09
2018-09-10T23:14:29.223Z,21.08
2018-09-10T23:18:32.813Z,21.05
2018-09-10T23:22:36.477Z,21.04
2018-09-10T23:26:41.125Z,21.00
2018-09-10T23:30:44.829Z,21.00
2018-09-10T23:34:48.510Z,21.00
2018-09-10T23:38:52.092Z,20.95
2018-09-10T23:42:55.813Z,20.91
2018-09-10T23:46:59.280Z,20.90
2018-09-10T23:51:03.094Z,20.90
2018-09-10T23:55:06.925Z,20.91
2018-09-10T23:59:10.470Z,20.92
